sensor_id;sensor_type;location;lat;lon;timestamp;temperature;humidity
22742;DHT22;11538;48.884;8.696;2023-04-01T00:00:01;11.30;99.90
22742;DHT22;11538;48.884;8.696;2023-04-01T00:02:28;11.30;99.90
22742;DHT22;11538;48.884;8.696;2023-04-01T00:04:55;11.30;99.90
22742;DHT22;11538;48.884;8.696;2023-04-01T00:07:22;11.30;99.90
22742;DHT22;11538;48.884;8.696;2023-04-01T00:09:48;11.30;99.90
22742;DHT22;11538;48.884;8.696;2023-04-01T00:12:15;11.30;99.90
22742;DHT22;11538;48.884;8.696;2023-04-01T00:14:42;11.30;99.90
22742;DHT22;11538;48.884;8.696;2023-04-01T00:17:10;11.30;99.90
22742;DHT22;11538;48.884;8.696;2023-04-01T00:19:37;11.30;99.90
22742;DHT22;11538;48.884;8.696;2023-04-01T00:22:07;11.30;99.90
22742;DHT22;11538;48.884;8.696;2023-04-01T00:24:38;11.30;99.90
22742;DHT22;11538;48.884;8.696;2023-04-01T00:27:05;11.30;99.90
22742;DHT22;11538;48.884;8.696;2023-04-01T00:29:32;11.30;99.90
22742;DHT22;11538;48.884;8.696;2023-04-01T00:31:59;11.30;99.90
22742;DHT22;11538;48.884;8.696;2023-04-01T00:34:26;11.30;99.90
22742;DHT22;11538;48.884;8.696;2023-04-01T00:36:53;11.30;99.90
22742;DHT22;11538;48.884;8.696;2023-04-01T00:39:20;11.30;99.90
22742;DHT22;11538;48.884;8.696;2023-04-01T00:41:48;11.30;99.90
22742;DHT22;11538;48.884;8.696;2023-04-01T00:44:23;11.30;99.90
22742;DHT22;11538;48.884;8.696;2023-04-01T00:46:52;11.30;99.90
22742;DHT22;11538;48.884;8.696;2023-04-01T00:49:23;11.30;99.90
22742;DHT22;11538;48.884;8.696;2023-04-01T00:51:55;11.30;99.90
22742;DHT22;11538;48.884;8.696;2023-04-01T00:54:25;11.30;99.90
22742;DHT22;11538;48.884;8.696;2023-04-01T00:57:02;11.20;99.90
22742;DHT22;11538;48.884;8.696;2023-04-01T00:59:37;11.20;99.90
22742;DHT22;11538;48.884;8.696;2023-04-01T01:02:11;11.20;99.90
22742;DHT22;11538;48.884;8.696;2023-04-01T01:04:39;11.20;99.90
22742;DHT22;11538;48.884;8.696;2023-04-01T01:10:11;11.10;99.90
22742;DHT22;11538;48.884;8.696;2023-04-01T01:15:58;11.10;99.90
22742;DHT22;11538;48.884;8.696;2023-04-01T01:18:43;11.10;99.90
22742;DHT22;11538;48.884;8.696;2023-04-01T01:27:16;11.10;99.90
22742;DHT22;11538;48.884;8.696;2023-04-01T01:35:27;11.10;99.90
22742;DHT22;11538;48.884;8.696;2023-04-01T01:38:01;11.10;99.90
22742;DHT22;11538;48.884;8.696;2023-04-01T01:40:43;11.10;99.90
22742;DHT22;11538;48.884;8.696;2023-04-01T01:43:19;11.10;99.90
22742;DHT22;11538;48.884;8.696;2023-04-01T01:45:53;11.10;99.90
22742;DHT22;11538;48.884;8.696;2023-04-01T01:48:24;11.10;99.90
22742;DHT22;11538;48.884;8.696;2023-04-01T01:50:54;11.10;99.90
22742;DHT22;11538;48.884;8.696;2023-04-01T01:53:21;11.10;99.90
22742;DHT22;11538;48.884;8.696;2023-04-01T01:55:48;11.10;99.90
22742;DHT22;11538;48.884;8.696;2023-04-01T01:58:36;11.00;99.90
22742;DHT22;11538;48.884;8.696;2023-04-01T02:01:13;11.00;99.90
22742;DHT22;11538;48.884;8.696;2023-04-01T02:03:45;11.00;99.90
22742;DHT22;11538;48.884;8.696;2023-04-01T02:06:16;10.90;99.90
22742;DHT22;11538;48.884;8.696;2023-04-01T02:08:56;11.00;99.90
22742;DHT22;11538;48.884;8.696;2023-04-01T02:11:46;11.00;99.90
22742;DHT22;11538;48.884;8.696;2023-04-01T02:17:17;11.00;99.90
22742;DHT22;11538;48.884;8.696;2023-04-01T02:20:01;11.00;99.90
22742;DHT22;11538;48.884;8.696;2023-04-01T02:22:40;11.00;99.90
22742;DHT22;11538;48.884;8.696;2023-04-01T02:25:14;11.00;99.90
22742;DHT22;11538;48.884;8.696;2023-04-01T02:27:45;11.00;99.90
22742;DHT22;11538;48.884;8.696;2023-04-01T02:30:15;10.90;99.90
22742;DHT22;11538;48.884;8.696;2023-04-01T02:32:44;10.90;99.90
22742;DHT22;11538;48.884;8.696;2023-04-01T02:35:13;10.80;99.90
22742;DHT22;11538;48.884;8.696;2023-04-01T02:37:43;10.80;99.90
22742;DHT22;11538;48.884;8.696;2023-04-01T02:40:13;10.70;99.90
22742;DHT22;11538;48.884;8.696;2023-04-01T02:42:41;10.70;99.90
22742;DHT22;11538;48.884;8.696;2023-04-01T02:45:09;10.60;99.90
22742;DHT22;11538;48.884;8.696;2023-04-01T02:47:39;10.60;99.90
22742;DHT22;11538;48.884;8.696;2023-04-01T02:50:07;10.60;99.90
22742;DHT22;11538;48.884;8.696;2023-04-01T02:52:35;10.60;99.90
22742;DHT22;11538;48.884;8.696;2023-04-01T02:55:03;10.60;99.90
22742;DHT22;11538;48.884;8.696;2023-04-01T02:57:31;10.60;99.90
22742;DHT22;11538;48.884;8.696;2023-04-01T02:59:58;10.60;99.90
22742;DHT22;11538;48.884;8.696;2023-04-01T03:02:25;10.50;99.90
22742;DHT22;11538;48.884;8.696;2023-04-01T03:04:52;10.50;99.90
22742;DHT22;11538;48.884;8.696;2023-04-01T03:07:19;10.50;99.90
22742;DHT22;11538;48.884;8.696;2023-04-01T03:09:46;10.40;99.90
22742;DHT22;11538;48.884;8.696;2023-04-01T03:12:12;10.40;99.90
22742;DHT22;11538;48.884;8.696;2023-04-01T03:14:39;10.40;99.90
22742;DHT22;11538;48.884;8.696;2023-04-01T03:17:06;10.40;99.90
22742;DHT22;11538;48.884;8.696;2023-04-01T03:19:33;10.30;99.90
22742;DHT22;11538;48.884;8.696;2023-04-01T03:22:00;10.30;99.90
22742;DHT22;11538;48.884;8.696;2023-04-01T03:24:27;10.30;99.90
22742;DHT22;11538;48.884;8.696;2023-04-01T03:26:54;10.30;99.90
22742;DHT22;11538;48.884;8.696;2023-04-01T03:29:21;10.30;99.90
22742;DHT22;11538;48.884;8.696;2023-04-01T03:31:47;10.30;99.90
22742;DHT22;11538;48.884;8.696;2023-04-01T03:34:14;10.30;99.90
22742;DHT22;11538;48.884;8.696;2023-04-01T03:36:41;10.30;99.90
22742;DHT22;11538;48.884;8.696;2023-04-01T03:39:08;10.30;99.90
22742;DHT22;11538;48.884;8.696;2023-04-01T03:41:39;10.30;99.90
22742;DHT22;11538;48.884;8.696;2023-04-01T03:44:05;10.30;99.90
22742;DHT22;11538;48.884;8.696;2023-04-01T03:46:33;10.30;99.90
22742;DHT22;11538;48.884;8.696;2023-04-01T03:49:00;10.30;99.90
22742;DHT22;11538;48.884;8.696;2023-04-01T03:51:26;10.30;99.90
22742;DHT22;11538;48.884;8.696;2023-04-01T03:53:53;10.30;99.90
22742;DHT22;11538;48.884;8.696;2023-04-01T03:56:20;10.30;99.90
22742;DHT22;11538;48.884;8.696;2023-04-01T03:58:47;10.30;99.90
22742;DHT22;11538;48.884;8.696;2023-04-01T04:01:19;10.30;99.90
22742;DHT22;11538;48.884;8.696;2023-04-01T04:03:50;10.40;99.90
22742;DHT22;11538;48.884;8.696;2023-04-01T04:06:19;10.40;99.90
22742;DHT22;11538;48.884;8.696;2023-04-01T04:08:46;10.40;99.90
22742;DHT22;11538;48.884;8.696;2023-04-01T04:11:13;10.40;99.90
22742;DHT22;11538;48.884;8.696;2023-04-01T04:13:40;10.40;99.90
22742;DHT22;11538;48.884;8.696;2023-04-01T04:16:08;10.40;99.90
22742;DHT22;11538;48.884;8.696;2023-04-01T04:18:37;10.40;99.90
22742;DHT22;11538;48.884;8.696;2023-04-01T04:21:04;10.50;99.90
22742;DHT22;11538;48.884;8.696;2023-04-01T04:23:32;10.50;99.90
22742;DHT22;11538;48.884;8.696;2023-04-01T04:26:04;10.50;99.90
22742;DHT22;11538;48.884;8.696;2023-04-01T04:28:33;10.50;99.90
22742;DHT22;11538;48.884;8.696;2023-04-01T04:31:01;10.50;99.90
22742;DHT22;11538;48.884;8.696;2023-04-01T04:33:28;10.50;99.90
22742;DHT22;11538;48.884;8.696;2023-04-01T04:35:56;10.50;99.90
22742;DHT22;11538;48.884;8.696;2023-04-01T04:38:25;10.50;99.90
22742;DHT22;11538;48.884;8.696;2023-04-01T04:40:52;10.50;99.90
22742;DHT22;11538;48.884;8.696;2023-04-01T04:43:19;10.50;99.90
22742;DHT22;11538;48.884;8.696;2023-04-01T04:45:46;10.50;99.90
22742;DHT22;11538;48.884;8.696;2023-04-01T04:48:15;10.50;99.90
22742;DHT22;11538;48.884;8.696;2023-04-01T04:50:49;10.50;99.90
22742;DHT22;11538;48.884;8.696;2023-04-01T04:53:18;10.50;99.90
22742;DHT22;11538;48.884;8.696;2023-04-01T04:55:49;10.50;99.90
22742;DHT22;11538;48.884;8.696;2023-04-01T04:58:17;10.50;99.90
22742;DHT22;11538;48.884;8.696;2023-04-01T05:00:45;10.50;99.90
22742;DHT22;11538;48.884;8.696;2023-04-01T05:03:13;10.50;99.90
22742;DHT22;11538;48.884;8.696;2023-04-01T05:05:49;10.50;99.90
22742;DHT22;11538;48.884;8.696;2023-04-01T05:08:17;10.50;99.90
22742;DHT22;11538;48.884;8.696;2023-04-01T05:10:45;10.40;99.90
22742;DHT22;11538;48.884;8.696;2023-04-01T05:13:12;10.50;99.90
22742;DHT22;11538;48.884;8.696;2023-04-01T05:15:39;10.50;99.90
22742;DHT22;11538;48.884;8.696;2023-04-01T05:18:06;10.50;99.90
22742;DHT22;11538;48.884;8.696;2023-04-01T05:20:33;10.50;99.90
22742;DHT22;11538;48.884;8.696;2023-04-01T05:23:00;10.50;99.90
22742;DHT22;11538;48.884;8.696;2023-04-01T05:25:27;10.50;99.90
22742;DHT22;11538;48.884;8.696;2023-04-01T05:27:54;10.50;99.90
22742;DHT22;11538;48.884;8.696;2023-04-01T05:30:21;10.60;99.90
22742;DHT22;11538;48.884;8.696;2023-04-01T05:32:48;10.60;99.90
22742;DHT22;11538;48.884;8.696;2023-04-01T05:35:15;10.60;99.90
22742;DHT22;11538;48.884;8.696;2023-04-01T05:37:42;10.60;99.90
22742;DHT22;11538;48.884;8.696;2023-04-01T05:40:09;10.60;99.90
22742;DHT22;11538;48.884;8.696;2023-04-01T05:42:37;10.70;99.90
22742;DHT22;11538;48.884;8.696;2023-04-01T05:45:04;10.60;99.90
22742;DHT22;11538;48.884;8.696;2023-04-01T05:47:31;10.70;99.90
22742;DHT22;11538;48.884;8.696;2023-04-01T05:49:58;10.70;99.90
22742;DHT22;11538;48.884;8.696;2023-04-01T05:52:25;10.70;99.90
22742;DHT22;11538;48.884;8.696;2023-04-01T05:54:52;10.70;99.90
22742;DHT22;11538;48.884;8.696;2023-04-01T05:57:19;10.70;99.90
22742;DHT22;11538;48.884;8.696;2023-04-01T05:59:46;10.70;99.90
22742;DHT22;11538;48.884;8.696;2023-04-01T06:02:16;10.70;99.90
22742;DHT22;11538;48.884;8.696;2023-04-01T06:04:45;10.70;99.90
22742;DHT22;11538;48.884;8.696;2023-04-01T06:07:14;10.70;99.90
22742;DHT22;11538;48.884;8.696;2023-04-01T06:09:43;10.70;99.90
22742;DHT22;11538;48.884;8.696;2023-04-01T06:12:33;10.70;99.90
22742;DHT22;11538;48.884;8.696;2023-04-01T06:15:24;10.60;99.90
22742;DHT22;11538;48.884;8.696;2023-04-01T06:21:35;10.40;99.90
22742;DHT22;11538;48.884;8.696;2023-04-01T06:36:14;10.30;99.90
22742;DHT22;11538;48.884;8.696;2023-04-01T06:39:27;10.20;99.90
22742;DHT22;11538;48.884;8.696;2023-04-01T06:42:39;10.20;99.90
22742;DHT22;11538;48.884;8.696;2023-04-01T06:52:11;10.10;99.90
22742;DHT22;11538;48.884;8.696;2023-04-01T06:55:02;10.10;99.90
22742;DHT22;11538;48.884;8.696;2023-04-01T06:57:47;10.10;99.90
22742;DHT22;11538;48.884;8.696;2023-04-01T07:00:36;10.20;99.90
22742;DHT22;11538;48.884;8.696;2023-04-01T07:06:32;10.20;99.90
22742;DHT22;11538;48.884;8.696;2023-04-01T07:09:18;10.10;99.90
22742;DHT22;11538;48.884;8.696;2023-04-01T07:11:50;10.10;99.90
22742;DHT22;11538;48.884;8.696;2023-04-01T07:14:32;10.10;99.90
22742;DHT22;11538;48.884;8.696;2023-04-01T07:17:12;10.10;99.90
22742;DHT22;11538;48.884;8.696;2023-04-01T07:22:43;10.20;99.90
22742;DHT22;11538;48.884;8.696;2023-04-01T07:25:15;10.20;99.90
22742;DHT22;11538;48.884;8.696;2023-04-01T07:27:50;10.20;99.90
22742;DHT22;11538;48.884;8.696;2023-04-01T07:30:22;10.30;99.90
22742;DHT22;11538;48.884;8.696;2023-04-01T07:35:45;10.30;99.90
22742;DHT22;11538;48.884;8.696;2023-04-01T07:41:29;10.50;99.90
22742;DHT22;11538;48.884;8.696;2023-04-01T07:44:19;10.50;99.90
22742;DHT22;11538;48.884;8.696;2023-04-01T07:47:18;10.50;99.90
22742;DHT22;11538;48.884;8.696;2023-04-01T07:50:21;10.60;99.90
22742;DHT22;11538;48.884;8.696;2023-04-01T07:55:56;10.60;99.90
22742;DHT22;11538;48.884;8.696;2023-04-01T07:59:09;10.60;99.90
22742;DHT22;11538;48.884;8.696;2023-04-01T08:04:58;10.60;99.90
22742;DHT22;11538;48.884;8.696;2023-04-01T08:10:36;10.40;99.90
22742;DHT22;11538;48.884;8.696;2023-04-01T08:21:10;10.20;99.90
22742;DHT22;11538;48.884;8.696;2023-04-01T08:23:30;10.00;99.90
22742;DHT22;11538;48.884;8.696;2023-04-01T08:26:34;10.00;99.90
22742;DHT22;11538;48.884;8.696;2023-04-01T08:32:09;10.00;99.90
22742;DHT22;11538;48.884;8.696;2023-04-01T08:34:50;10.00;99.90
22742;DHT22;11538;48.884;8.696;2023-04-01T08:37:30;10.10;99.90
22742;DHT22;11538;48.884;8.696;2023-04-01T08:52:35;10.40;99.90
22742;DHT22;11538;48.884;8.696;2023-04-01T08:55:40;10.40;99.90
22742;DHT22;11538;48.884;8.696;2023-04-01T09:07:32;11.00;99.90
22742;DHT22;11538;48.884;8.696;2023-04-01T09:28:05;11.30;99.90
22742;DHT22;11538;48.884;8.696;2023-04-01T09:31:06;11.30;99.90
22742;DHT22;11538;48.884;8.696;2023-04-01T09:36:46;11.30;99.90
22742;DHT22;11538;48.884;8.696;2023-04-01T09:39:36;11.40;99.90
22742;DHT22;11538;48.884;8.696;2023-04-01T09:42:15;11.40;99.90
22742;DHT22;11538;48.884;8.696;2023-04-01T09:47:38;11.50;99.90
22742;DHT22;11538;48.884;8.696;2023-04-01T09:53:28;11.80;99.90
22742;DHT22;11538;48.884;8.696;2023-04-01T10:11:50;12.10;99.90
22742;DHT22;11538;48.884;8.696;2023-04-01T10:17:44;12.10;99.90
22742;DHT22;11538;48.884;8.696;2023-04-01T10:27:33;12.00;99.90
22742;DHT22;11538;48.884;8.696;2023-04-01T10:34:22;12.10;99.90
22742;DHT22;11538;48.884;8.696;2023-04-01T10:36:56;12.20;99.90
22742;DHT22;11538;48.884;8.696;2023-04-01T11:17:43;14.50;99.90
22742;DHT22;11538;48.884;8.696;2023-04-01T11:23:53;14.20;99.90
22742;DHT22;11538;48.884;8.696;2023-04-01T11:35:35;13.40;99.90
22742;DHT22;11538;48.884;8.696;2023-04-01T11:38:24;13.40;99.90
22742;DHT22;11538;48.884;8.696;2023-04-01T11:44:11;13.20;99.90
22742;DHT22;11538;48.884;8.696;2023-04-01T11:49:45;13.20;99.90
22742;DHT22;11538;48.884;8.696;2023-04-01T12:10:20;14.00;99.90
22742;DHT22;11538;48.884;8.696;2023-04-01T12:18:33;14.90;99.90
22742;DHT22;11538;48.884;8.696;2023-04-01T12:27:27;14.40;99.90
22742;DHT22;11538;48.884;8.696;2023-04-01T12:35:55;13.80;99.90
22742;DHT22;11538;48.884;8.696;2023-04-01T12:43:19;13.50;99.90
22742;DHT22;11538;48.884;8.696;2023-04-01T12:45:33;13.40;99.90
22742;DHT22;11538;48.884;8.696;2023-04-01T12:51:17;13.20;99.90
22742;DHT22;11538;48.884;8.696;2023-04-01T13:12:50;13.30;99.90
22742;DHT22;11538;48.884;8.696;2023-04-01T13:15:35;13.30;99.90
22742;DHT22;11538;48.884;8.696;2023-04-01T13:24:43;13.30;99.90
22742;DHT22;11538;48.884;8.696;2023-04-01T13:27:34;13.20;99.90
22742;DHT22;11538;48.884;8.696;2023-04-01T13:33:25;13.10;99.90
22742;DHT22;11538;48.884;8.696;2023-04-01T13:36:22;13.10;99.90
22742;DHT22;11538;48.884;8.696;2023-04-01T13:42:28;13.30;99.90
22742;DHT22;11538;48.884;8.696;2023-04-01T13:45:15;13.30;99.90
22742;DHT22;11538;48.884;8.696;2023-04-01T13:48:06;13.30;99.90
22742;DHT22;11538;48.884;8.696;2023-04-01T14:06:11;12.20;99.90
22742;DHT22;11538;48.884;8.696;2023-04-01T14:12:29;12.30;99.90
22742;DHT22;11538;48.884;8.696;2023-04-01T14:24:16;12.90;99.90
22742;DHT22;11538;48.884;8.696;2023-04-01T14:27:15;13.10;99.90
22742;DHT22;11538;48.884;8.696;2023-04-01T14:36:18;12.90;99.90
22742;DHT22;11538;48.884;8.696;2023-04-01T14:49:02;12.60;99.90
22742;DHT22;11538;48.884;8.696;2023-04-01T14:51:41;12.60;99.90
22742;DHT22;11538;48.884;8.696;2023-04-01T14:56:47;12.60;99.90
22742;DHT22;11538;48.884;8.696;2023-04-01T15:08:05;12.50;99.90
22742;DHT22;11538;48.884;8.696;2023-04-01T15:16:15;12.50;99.90
22742;DHT22;11538;48.884;8.696;2023-04-01T15:21:55;12.50;99.90
22742;DHT22;11538;48.884;8.696;2023-04-01T15:27:34;12.50;99.90
22742;DHT22;11538;48.884;8.696;2023-04-01T15:30:25;12.50;99.90
22742;DHT22;11538;48.884;8.696;2023-04-01T15:33:15;12.50;99.90
22742;DHT22;11538;48.884;8.696;2023-04-01T15:36:25;12.50;99.90
22742;DHT22;11538;48.884;8.696;2023-04-01T15:39:09;12.40;99.90
22742;DHT22;11538;48.884;8.696;2023-04-01T15:50:26;12.20;99.90
22742;DHT22;11538;48.884;8.696;2023-04-01T16:04:57;12.10;99.90
22742;DHT22;11538;48.884;8.696;2023-04-01T16:14:18;11.90;99.90
22742;DHT22;11538;48.884;8.696;2023-04-01T16:20:18;11.80;99.90
22742;DHT22;11538;48.884;8.696;2023-04-01T16:22:55;11.70;99.90
22742;DHT22;11538;48.884;8.696;2023-04-01T16:25:36;11.60;99.90
22742;DHT22;11538;48.884;8.696;2023-04-01T16:28:25;11.60;99.90
22742;DHT22;11538;48.884;8.696;2023-04-01T16:31:07;11.60;99.90
22742;DHT22;11538;48.884;8.696;2023-04-01T16:33:51;11.60;99.90
22742;DHT22;11538;48.884;8.696;2023-04-01T16:42:53;11.60;99.90
22742;DHT22;11538;48.884;8.696;2023-04-01T16:45:42;11.60;99.90
22742;DHT22;11538;48.884;8.696;2023-04-01T16:48:18;11.60;99.90
22742;DHT22;11538;48.884;8.696;2023-04-01T16:51:07;11.60;99.90
22742;DHT22;11538;48.884;8.696;2023-04-01T16:53:43;11.70;99.90
22742;DHT22;11538;48.884;8.696;2023-04-01T16:56:23;11.70;99.90
22742;DHT22;11538;48.884;8.696;2023-04-01T16:58:58;11.60;99.90
22742;DHT22;11538;48.884;8.696;2023-04-01T17:04:44;11.60;99.90
22742;DHT22;11538;48.884;8.696;2023-04-01T17:10:54;11.60;99.90
22742;DHT22;11538;48.884;8.696;2023-04-01T17:19:55;11.40;99.90
22742;DHT22;11538;48.884;8.696;2023-04-01T17:25:49;11.20;99.90
22742;DHT22;11538;48.884;8.696;2023-04-01T17:28:49;11.00;99.90
22742;DHT22;11538;48.884;8.696;2023-04-01T17:34:17;10.70;99.90
22742;DHT22;11538;48.884;8.696;2023-04-01T17:45:48;10.40;99.90
22742;DHT22;11538;48.884;8.696;2023-04-01T17:48:27;10.40;99.90
22742;DHT22;11538;48.884;8.696;2023-04-01T17:51:37;10.40;99.90
22742;DHT22;11538;48.884;8.696;2023-04-01T17:54:37;10.40;99.90
22742;DHT22;11538;48.884;8.696;2023-04-01T18:00:18;10.40;99.90
22742;DHT22;11538;48.884;8.696;2023-04-01T18:09:48;10.30;99.90
22742;DHT22;11538;48.884;8.696;2023-04-01T18:12:03;10.40;99.90
22742;DHT22;11538;48.884;8.696;2023-04-01T18:15:11;10.30;99.90
22742;DHT22;11538;48.884;8.696;2023-04-01T18:26:06;10.30;99.90
22742;DHT22;11538;48.884;8.696;2023-04-01T18:28:48;10.30;99.90
22742;DHT22;11538;48.884;8.696;2023-04-01T18:31:22;10.30;99.90
22742;DHT22;11538;48.884;8.696;2023-04-01T18:34:10;10.20;99.90
22742;DHT22;11538;48.884;8.696;2023-04-01T18:36:56;10.20;99.90
22742;DHT22;11538;48.884;8.696;2023-04-01T18:39:52;10.20;99.90
22742;DHT22;11538;48.884;8.696;2023-04-01T18:42:55;10.20;99.90
22742;DHT22;11538;48.884;8.696;2023-04-01T18:46:00;10.20;99.90
22742;DHT22;11538;48.884;8.696;2023-04-01T18:51:41;10.20;99.90
22742;DHT22;11538;48.884;8.696;2023-04-01T18:54:31;10.20;99.90
22742;DHT22;11538;48.884;8.696;2023-04-01T18:57:13;10.20;99.90
22742;DHT22;11538;48.884;8.696;2023-04-01T18:59:46;10.10;99.90
22742;DHT22;11538;48.884;8.696;2023-04-01T19:02:37;10.10;99.90
22742;DHT22;11538;48.884;8.696;2023-04-01T19:05:19;10.10;99.90
22742;DHT22;11538;48.884;8.696;2023-04-01T19:07:55;10.10;99.90
22742;DHT22;11538;48.884;8.696;2023-04-01T19:13:51;10.10;99.90
22742;DHT22;11538;48.884;8.696;2023-04-01T19:28:39;10.20;99.90
22742;DHT22;11538;48.884;8.696;2023-04-01T19:34:24;10.20;99.90
22742;DHT22;11538;48.884;8.696;2023-04-01T19:37:02;10.20;99.90
22742;DHT22;11538;48.884;8.696;2023-04-01T19:40:17;10.20;99.90
22742;DHT22;11538;48.884;8.696;2023-04-01T19:52:37;10.30;99.90
22742;DHT22;11538;48.884;8.696;2023-04-01T19:58:17;10.30;99.90
22742;DHT22;11538;48.884;8.696;2023-04-01T20:00:56;10.30;99.90
22742;DHT22;11538;48.884;8.696;2023-04-01T20:03:44;10.40;99.90
22742;DHT22;11538;48.884;8.696;2023-04-01T20:06:37;10.30;99.90
22742;DHT22;11538;48.884;8.696;2023-04-01T20:09:43;10.30;99.90
22742;DHT22;11538;48.884;8.696;2023-04-01T20:12:49;10.40;99.90
22742;DHT22;11538;48.884;8.696;2023-04-01T20:15:43;10.40;99.90
22742;DHT22;11538;48.884;8.696;2023-04-01T20:18:26;10.40;99.90
22742;DHT22;11538;48.884;8.696;2023-04-01T20:21:43;10.30;99.90
22742;DHT22;11538;48.884;8.696;2023-04-01T20:27:09;10.30;99.90
22742;DHT22;11538;48.884;8.696;2023-04-01T20:42:14;10.30;99.90
22742;DHT22;11538;48.884;8.696;2023-04-01T20:51:16;10.20;99.90
22742;DHT22;11538;48.884;8.696;2023-04-01T20:57:16;10.20;99.90
22742;DHT22;11538;48.884;8.696;2023-04-01T21:14:49;10.20;99.90
22742;DHT22;11538;48.884;8.696;2023-04-01T21:22:56;10.20;99.90
22742;DHT22;11538;48.884;8.696;2023-04-01T21:26:03;10.20;99.90
22742;DHT22;11538;48.884;8.696;2023-04-01T21:38:26;10.20;99.90
22742;DHT22;11538;48.884;8.696;2023-04-01T21:44:09;10.20;99.90
22742;DHT22;11538;48.884;8.696;2023-04-01T21:47:02;10.20;99.90
22742;DHT22;11538;48.884;8.696;2023-04-01T21:59:26;10.20;99.90
22742;DHT22;11538;48.884;8.696;2023-04-01T22:02:43;10.20;99.90
22742;DHT22;11538;48.884;8.696;2023-04-01T22:06:33;10.20;99.90
22742;DHT22;11538;48.884;8.696;2023-04-01T22:11:30;10.20;99.90
22742;DHT22;11538;48.884;8.696;2023-04-01T22:14:24;10.20;99.90
22742;DHT22;11538;48.884;8.696;2023-04-01T22:17:19;10.20;99.90
22742;DHT22;11538;48.884;8.696;2023-04-01T22:26:14;10.20;99.90
22742;DHT22;11538;48.884;8.696;2023-04-01T22:28:59;10.20;99.90
22742;DHT22;11538;48.884;8.696;2023-04-01T22:31:57;10.30;99.90
22742;DHT22;11538;48.884;8.696;2023-04-01T22:40:47;10.30;99.90
22742;DHT22;11538;48.884;8.696;2023-04-01T22:43:22;10.20;99.90
22742;DHT22;11538;48.884;8.696;2023-04-01T22:46:02;10.20;99.90
22742;DHT22;11538;48.884;8.696;2023-04-01T22:48:37;10.20;99.90
22742;DHT22;11538;48.884;8.696;2023-04-01T22:51:20;10.30;99.90
22742;DHT22;11538;48.884;8.696;2023-04-01T22:56:38;10.20;99.90
22742;DHT22;11538;48.884;8.696;2023-04-01T22:59:17;10.20;99.90
22742;DHT22;11538;48.884;8.696;2023-04-01T23:01:57;10.30;99.90
22742;DHT22;11538;48.884;8.696;2023-04-01T23:04:39;10.20;99.90
22742;DHT22;11538;48.884;8.696;2023-04-01T23:13:00;10.30;99.90
22742;DHT22;11538;48.884;8.696;2023-04-01T23:15:30;10.30;99.90
22742;DHT22;11538;48.884;8.696;2023-04-01T23:18:15;10.30;99.90
22742;DHT22;11538;48.884;8.696;2023-04-01T23:24:09;10.30;99.90
22742;DHT22;11538;48.884;8.696;2023-04-01T23:26:59;10.40;99.90
22742;DHT22;11538;48.884;8.696;2023-04-01T23:29:27;10.40;99.90
22742;DHT22;11538;48.884;8.696;2023-04-01T23:32:02;10.30;99.90
22742;DHT22;11538;48.884;8.696;2023-04-01T23:34:32;10.40;99.90
22742;DHT22;11538;48.884;8.696;2023-04-01T23:37:12;10.40;99.90
22742;DHT22;11538;48.884;8.696;2023-04-01T23:39:47;10.40;99.90
22742;DHT22;11538;48.884;8.696;2023-04-01T23:42:23;10.40;99.90
22742;DHT22;11538;48.884;8.696;2023-04-01T23:45:03;10.40;99.90
22742;DHT22;11538;48.884;8.696;2023-04-01T23:47:34;10.40;99.90
22742;DHT22;11538;48.884;8.696;2023-04-01T23:50:14;10.40;99.90
22742;DHT22;11538;48.884;8.696;2023-04-01T23:52:51;10.40;99.90
22742;DHT22;11538;48.884;8.696;2023-04-01T23:55:32;10.40;99.90
22742;DHT22;11538;48.884;8.696;2023-04-01T23:58:38;10.30;99.90
